Time;durP1;ratioP1;P1;durP2;ratioP2;P2;SDS_P1;SDS_P2;PMS_P1;PMS_P2;Temp;Humidity;BMP_temperature;BMP_pressure;BME280_temperature;BME280_humidity;BME280_pressure;Samples;Min_cycle;Max_cycle;Signal;HPM_P1;HPM_P2
2023/05/01 00:02:22;;;;;;;;;;;9.20;99.90;;;;;;5076263;28;20432;-53
2023/05/01 00:04:48;;;;;;;;;;;9.30;99.90;;;;;;5076339;28;19919;-53
2023/05/01 00:07:15;;;;;;;;;;;9.20;99.90;;;;;;5076184;28;19924;-53
2023/05/01 00:09:41;;;;;;;;;;;9.20;99.90;;;;;;5076277;28;19912;-53
2023/05/01 00:12:06;;;;;;;;;;;9.10;99.90;;;;;;5075951;28;19913;-53
2023/05/01 00:14:32;;;;;;;;;;;9.00;99.90;;;;;;5076140;28;19977;-53
2023/05/01 00:16:58;;;;;;;;;;;9.00;99.90;;;;;;5076027;28;20224;-54
2023/05/01 00:19:24;;;;;;;;;;;9.00;99.90;;;;;;5076225;28;19935;-53
2023/05/01 00:21:51;;;;;;;;;;;8.90;99.90;;;;;;5076012;28;19998;-53
2023/05/01 00:24:17;;;;;;;;;;;8.90;99.90;;;;;;5076004;28;19917;-53
2023/05/01 00:26:43;;;;;;;;;;;8.90;99.90;;;;;;5075811;28;19923;-53
2023/05/01 00:29:09;;;;;;;;;;;8.90;99.90;;;;;;5058014;28;19920;-53
2023/05/01 00:31:35;;;;;;;;;;;8.90;99.90;;;;;;5075602;28;19913;-53
2023/05/01 00:34:01;;;;;;;;;;;8.80;99.90;;;;;;5075656;28;19966;-53
2023/05/01 00:36:27;;;;;;;;;;;8.80;99.90;;;;;;5075734;28;20367;-53
2023/05/01 00:38:53;;;;;;;;;;;8.80;99.90;;;;;;5075774;28;20449;-53
2023/05/01 00:41:20;;;;;;;;;;;8.80;99.90;;;;;;5075472;28;20367;-53
2023/05/01 00:43:45;;;;;;;;;;;8.80;99.90;;;;;;5075760;28;19916;-53
2023/05/01 00:46:12;;;;;;;;;;;8.70;99.90;;;;;;5075698;28;19916;-53
2023/05/01 00:48:38;;;;;;;;;;;8.70;99.90;;;;;;5057503;28;20289;-53
2023/05/01 00:51:04;;;;;;;;;;;8.70;99.90;;;;;;5075598;28;19920;-53
2023/05/01 00:53:32;;;;;;;;;;;8.60;99.90;;;;;;5075557;28;20014;-53
2023/05/01 00:55:58;;;;;;;;;;;8.50;99.90;;;;;;5075310;28;19916;-53
2023/05/01 00:58:24;;;;;;;;;;;8.50;99.90;;;;;;5075453;28;19917;-53
2023/05/01 01:00:51;;;;;;;;;;;8.30;99.90;;;;;;5075569;28;19986;-53
2023/05/01 01:03:16;;;;;;;;;;;8.40;99.90;;;;;;5057207;28;19919;-53
2023/05/01 01:05:51;;;;;;;;;;;8.30;99.90;;;;;;5075256;28;19942;-53
2023/05/01 01:08:39;;;;;;;;;;;8.40;99.90;;;;;;5075195;28;20380;-53
2023/05/01 01:11:25;;;;;;;;;;;8.50;99.90;;;;;;5044161;28;20011;-53
2023/05/01 01:14:02;;;;;;;;;;;8.40;99.90;;;;;;5024171;28;19938;-53
2023/05/01 01:16:28;;;;;;;;;;;8.30;99.90;;;;;;5075076;28;20010;-53
2023/05/01 01:19:14;;;;;;;;;;;8.30;99.90;;;;;;5074705;28;20431;-53
2023/05/01 01:21:46;;;;;;;;;;;8.30;99.90;;;;;;5057275;28;20026;-53
2023/05/01 01:24:18;;;;;;;;;;;8.30;99.90;;;;;;5056943;28;20007;-53
2023/05/01 01:26:51;;;;;;;;;;;8.30;99.90;;;;;;5075110;28;20220;-53
2023/05/01 01:29:19;;;;;;;;;;;8.30;99.90;;;;;;5074884;28;19978;-53
2023/05/01 01:31:51;;;;;;;;;;;8.30;99.90;;;;;;5090338;28;19909;-53
2023/05/01 01:34:26;;;;;;;;;;;8.30;99.90;;;;;;5075012;28;20419;-53
2023/05/01 01:36:59;;;;;;;;;;;8.20;99.90;;;;;;5074941;28;19928;-53
2023/05/01 01:39:28;;;;;;;;;;;8.20;99.90;;;;;;5074800;28;19997;-53
2023/05/01 01:41:55;;;;;;;;;;;8.20;99.90;;;;;;5056869;28;19916;-53
2023/05/01 01:44:21;;;;;;;;;;;8.10;99.90;;;;;;5074819;28;19912;-53
2023/05/01 01:46:48;;;;;;;;;;;8.00;99.90;;;;;;5056706;28;19912;-53
2023/05/01 01:49:33;;;;;;;;;;;8.10;99.90;;;;;;5074756;28;19935;-53
2023/05/01 01:52:01;;;;;;;;;;;7.90;99.90;;;;;;5056778;28;19916;-53
2023/05/01 01:54:49;;;;;;;;;;;7.80;99.90;;;;;;5090383;28;19916;-53
2023/05/01 01:57:16;;;;;;;;;;;7.90;99.90;;;;;;5056720;28;19916;-53
2023/05/01 01:59:43;;;;;;;;;;;7.90;99.90;;;;;;5056571;28;19917;-53
2023/05/01 02:02:10;;;;;;;;;;;7.90;99.90;;;;;;5056795;28;19917;-53
2023/05/01 02:04:38;;;;;;;;;;;8.00;99.90;;;;;;5074566;28;20350;-53
2023/05/01 02:07:04;;;;;;;;;;;8.10;99.90;;;;;;5056587;28;19922;-53
2023/05/01 02:09:30;;;;;;;;;;;8.10;99.90;;;;;;5074596;28;19913;-53
2023/05/01 02:11:58;;;;;;;;;;;8.10;99.90;;;;;;5056725;28;19999;-53
2023/05/01 02:14:25;;;;;;;;;;;8.10;99.90;;;;;;5074565;28;19919;-53
2023/05/01 02:16:51;;;;;;;;;;;8.20;99.90;;;;;;5056640;28;19913;-53
2023/05/01 02:19:18;;;;;;;;;;;8.10;99.90;;;;;;5074363;28;19924;-53
2023/05/01 02:21:45;;;;;;;;;;;7.90;99.90;;;;;;5056472;28;19923;-53
2023/05/01 02:24:12;;;;;;;;;;;7.90;99.90;;;;;;5074659;28;19926;-53
2023/05/01 02:26:41;;;;;;;;;;;7.90;99.90;;;;;;5056697;28;20365;-53
2023/05/01 02:29:07;;;;;;;;;;;7.90;99.90;;;;;;5074311;28;19966;-53
2023/05/01 02:31:33;;;;;;;;;;;7.90;99.90;;;;;;5074389;28;20361;-53
2023/05/01 02:33:59;;;;;;;;;;;7.90;99.90;;;;;;5056332;28;19951;-53
2023/05/01 02:36:26;;;;;;;;;;;7.80;99.90;;;;;;5074228;28;19913;-53
2023/05/01 02:38:52;;;;;;;;;;;7.70;99.90;;;;;;5089915;28;19927;-53
2023/05/01 02:41:21;;;;;;;;;;;7.60;99.90;;;;;;5056282;28;19909;-53
2023/05/01 02:43:49;;;;;;;;;;;7.70;99.90;;;;;;5056215;28;19967;-53
2023/05/01 02:46:16;;;;;;;;;;;7.60;99.90;;;;;;5074186;28;20335;-53
2023/05/01 02:48:42;;;;;;;;;;;7.50;99.90;;;;;;5074254;28;20045;-53
2023/05/01 02:51:08;;;;;;;;;;;7.40;99.90;;;;;;5056179;28;20023;-53
2023/05/01 02:53:35;;;;;;;;;;;7.40;99.90;;;;;;5056177;28;20382;-53
2023/05/01 02:56:11;;;;;;;;;;;7.40;99.90;;;;;;5058202;28;19909;-53
2023/05/01 02:58:37;;;;;;;;;;;7.40;99.90;;;;;;5077706;28;19989;-53
2023/05/01 03:01:03;;;;;;;;;;;7.40;99.90;;;;;;5077767;28;19917;-53
2023/05/01 03:03:29;;;;;;;;;;;7.60;99.90;;;;;;5059755;28;20324;-53
2023/05/01 03:05:54;;;;;;;;;;;7.60;99.90;;;;;;5059521;28;19912;-53
2023/05/01 03:08:21;;;;;;;;;;;7.60;99.90;;;;;;5077737;28;20159;-53
2023/05/01 03:10:46;;;;;;;;;;;7.60;99.90;;;;;;5077403;28;20228;-53
2023/05/01 03:13:12;;;;;;;;;;;7.50;99.90;;;;;;5093131;28;20003;-53
2023/05/01 03:15:38;;;;;;;;;;;7.50;99.90;;;;;;5077496;28;19912;-53
2023/05/01 03:18:04;;;;;;;;;;;7.40;99.90;;;;;;5076955;28;19996;-53
2023/05/01 03:20:30;;;;;;;;;;;7.40;99.90;;;;;;5077439;28;19999;-53
2023/05/01 03:22:56;;;;;;;;;;;7.30;99.90;;;;;;5059233;28;19919;-53
2023/05/01 03:25:22;;;;;;;;;;;7.20;99.90;;;;;;5059170;28;20007;-53
2023/05/01 03:27:48;;;;;;;;;;;7.10;99.90;;;;;;5059326;28;19919;-53
2023/05/01 03:30:15;;;;;;;;;;;7.10;99.90;;;;;;5077036;28;19924;-53
2023/05/01 03:32:41;;;;;;;;;;;7.00;99.90;;;;;;5059089;28;19913;-53
2023/05/01 03:35:14;;;;;;;;;;;7.00;99.90;;;;;;5092776;28;20293;-53
2023/05/01 03:37:40;;;;;;;;;;;7.10;99.90;;;;;;5076970;28;19917;-53
2023/05/01 03:40:06;;;;;;;;;;;7.10;99.90;;;;;;5092406;28;19912;-53
2023/05/01 03:42:50;;;;;;;;;;;7.10;99.90;;;;;;5077153;28;19920;-53
2023/05/01 03:45:20;;;;;;;;;;;7.00;99.90;;;;;;5059128;28;20000;-53
2023/05/01 03:47:46;;;;;;;;;;;6.90;99.90;;;;;;5092324;28;20351;-53
2023/05/01 03:50:13;;;;;;;;;;;6.90;99.90;;;;;;5092414;28;19931;-53
2023/05/01 03:52:42;;;;;;;;;;;6.90;99.90;;;;;;5092289;28;19938;-53
2023/05/01 03:55:08;;;;;;;;;;;6.90;99.90;;;;;;5092140;28;19995;-53
2023/05/01 03:57:39;;;;;;;;;;;6.90;99.90;;;;;;5058718;28;20022;-53
2023/05/01 04:00:06;;;;;;;;;;;7.10;99.90;;;;;;5058813;28;19916;-53
2023/05/01 04:02:41;;;;;;;;;;;7.20;99.90;;;;;;5076534;28;19963;-53
2023/05/01 04:05:08;;;;;;;;;;;7.20;99.90;;;;;;5058572;28;19983;-53
2023/05/01 04:07:35;;;;;;;;;;;7.10;99.90;;;;;;5057358;28;20194;-53
2023/05/01 04:10:01;;;;;;;;;;;7.10;99.90;;;;;;5091766;28;20004;-53
2023/05/01 04:12:27;;;;;;;;;;;7.20;99.90;;;;;;5058517;28;19947;-53
2023/05/01 04:14:53;;;;;;;;;;;7.20;99.90;;;;;;5058262;28;19966;-53
2023/05/01 04:17:19;;;;;;;;;;;7.20;99.90;;;;;;5075910;28;19931;-53
2023/05/01 04:19:46;;;;;;;;;;;7.30;99.90;;;;;;5076308;28;19923;-53
2023/05/01 04:22:12;;;;;;;;;;;7.40;99.90;;;;;;5058034;28;19964;-53
2023/05/01 04:24:39;;;;;;;;;;;7.50;99.90;;;;;;5091718;28;19961;-53
2023/05/01 04:27:05;;;;;;;;;;;7.60;99.90;;;;;;5091759;28;19916;-53
2023/05/01 04:29:31;;;;;;;;;;;7.60;99.90;;;;;;5091330;28;19916;-53
2023/05/01 04:31:57;;;;;;;;;;;7.70;99.90;;;;;;5076031;28;20409;-53
2023/05/01 04:34:23;;;;;;;;;;;7.90;99.90;;;;;;5058098;28;19912;-53
2023/05/01 04:36:50;;;;;;;;;;;7.90;99.90;;;;;;5057807;28;19946;-53
2023/05/01 04:39:16;;;;;;;;;;;8.00;99.90;;;;;;5091459;28;20392;-53
2023/05/01 04:41:42;;;;;;;;;;;8.10;99.90;;;;;;5057940;28;19924;-53
2023/05/01 04:44:08;;;;;;;;;;;8.10;99.90;;;;;;5075576;28;19999;-53
2023/05/01 04:46:33;;;;;;;;;;;8.20;99.90;;;;;;5057884;28;19987;-53
2023/05/01 04:48:59;;;;;;;;;;;8.30;99.90;;;;;;5091314;28;19916;-54
2023/05/01 04:51:27;;;;;;;;;;;8.40;99.90;;;;;;5057503;28;19978;-53
2023/05/01 04:53:54;;;;;;;;;;;8.40;99.90;;;;;;5091216;28;19912;-53
2023/05/01 04:56:24;;;;;;;;;;;8.60;99.90;;;;;;5057694;28;20011;-53
2023/05/01 04:58:53;;;;;;;;;;;8.60;99.90;;;;;;5057416;28;19924;-53
2023/05/01 05:01:22;;;;;;;;;;;8.70;99.90;;;;;;5090935;28;19913;-53
2023/05/01 05:03:48;;;;;;;;;;;8.90;99.90;;;;;;5090876;28;19976;-53
2023/05/01 05:06:14;;;;;;;;;;;9.10;99.90;;;;;;5057240;28;19952;-53
2023/05/01 05:08:41;;;;;;;;;;;9.10;99.90;;;;;;5057379;28;19917;-54
2023/05/01 05:11:08;;;;;;;;;;;9.30;99.90;;;;;;5057384;28;19912;-53
2023/05/01 05:13:45;;;;;;;;;;;9.40;99.90;;;;;;5057071;28;19912;-54
2023/05/01 05:16:12;;;;;;;;;;;9.40;99.90;;;;;;5090736;28;20007;-54
2023/05/01 05:18:38;;;;;;;;;;;9.50;99.90;;;;;;5053511;28;19999;-54
2023/05/01 05:21:04;;;;;;;;;;;9.60;99.90;;;;;;5053911;28;19970;-54
2023/05/01 05:23:30;;;;;;;;;;;9.60;99.90;;;;;;5053807;28;19963;-53
2023/05/01 05:26:00;;;;;;;;;;;9.80;99.90;;;;;;5055263;28;19913;-53
2023/05/01 05:28:29;;;;;;;;;;;9.90;99.90;;;;;;5053679;28;19956;-53
2023/05/01 05:30:56;;;;;;;;;;;10.00;99.90;;;;;;5053658;28;20267;-53
2023/05/01 05:33:23;;;;;;;;;;;10.20;99.90;;;;;;5053791;28;19917;-54
2023/05/01 05:35:50;;;;;;;;;;;10.40;99.90;;;;;;5053711;28;20004;-54
2023/05/01 05:38:16;;;;;;;;;;;10.30;99.90;;;;;;5053487;28;20346;-53
2023/05/01 05:40:45;;;;;;;;;;;10.40;99.90;;;;;;5053611;28;19915;-53
2023/05/01 05:43:12;;;;;;;;;;;10.60;99.90;;;;;;5053592;28;20275;-53
2023/05/01 05:45:38;;;;;;;;;;;10.70;99.90;;;;;;5053612;28;19963;-53
2023/05/01 05:48:04;;;;;;;;;;;11.00;99.90;;;;;;5053284;28;19976;-53
2023/05/01 05:50:32;;;;;;;;;;;11.20;99.90;;;;;;5053652;28;19913;-53
2023/05/01 05:52:58;;;;;;;;;;;11.10;99.90;;;;;;5053376;28;19954;-53
2023/05/01 05:55:25;;;;;;;;;;;11.30;99.90;;;;;;5053427;28;19983;-53
2023/05/01 05:58:00;;;;;;;;;;;11.20;99.90;;;;;;5053310;28;20353;-54
2023/05/01 06:00:26;;;;;;;;;;;11.30;99.90;;;;;;5053479;28;19917;-53
2023/05/01 06:02:53;;;;;;;;;;;11.60;99.90;;;;;;5053404;28;19912;-53
2023/05/01 06:05:20;;;;;;;;;;;11.90;99.90;;;;;;5053385;28;19913;-53
2023/05/01 06:07:46;;;;;;;;;;;12.20;99.90;;;;;;5053461;28;19919;-53
2023/05/01 06:10:12;;;;;;;;;;;12.40;99.90;;;;;;5054412;28;19959;-53
2023/05/01 06:12:40;;;;;;;;;;;12.70;99.90;;;;;;5053350;28;19920;-53
2023/05/01 06:15:06;;;;;;;;;;;12.80;99.90;;;;;;5053341;28;19916;-53
2023/05/01 06:17:36;;;;;;;;;;;13.00;99.90;;;;;;5052945;28;19925;-54
2023/05/01 06:20:04;;;;;;;;;;;13.30;99.90;;;;;;5053126;28;19917;-53
2023/05/01 06:22:31;;;;;;;;;;;13.40;99.90;;;;;;5053248;28;19916;-53
2023/05/01 06:25:07;;;;;;;;;;;13.60;99.90;;;;;;5053019;28;19917;-54
2023/05/01 06:27:34;;;;;;;;;;;13.90;99.90;;;;;;5053038;28;20362;-54
2023/05/01 06:30:00;;;;;;;;;;;14.00;99.90;;;;;;5053252;28;20062;-53
2023/05/01 06:32:26;;;;;;;;;;;14.20;99.90;;;;;;5056652;28;19971;-53
2023/05/01 06:34:52;;;;;;;;;;;14.30;99.90;;;;;;5057009;28;19927;-53
2023/05/01 06:37:17;;;;;;;;;;;14.60;99.90;;;;;;5056801;28;19927;-53
2023/05/01 06:39:43;;;;;;;;;;;14.80;99.90;;;;;;5058005;28;19924;-54
2023/05/01 06:42:14;;;;;;;;;;;14.80;99.90;;;;;;5056774;28;20375;-54
2023/05/01 06:44:40;;;;;;;;;;;14.90;99.90;;;;;;5058047;28;19913;-53
2023/05/01 06:47:06;;;;;;;;;;;15.00;99.90;;;;;;5056698;28;19908;-53
2023/05/01 06:49:32;;;;;;;;;;;15.40;99.90;;;;;;5058032;28;20019;-54
2023/05/01 06:51:59;;;;;;;;;;;15.60;99.90;;;;;;5056361;28;19931;-54
2023/05/01 06:54:25;;;;;;;;;;;15.80;99.90;;;;;;5056654;28;19916;-54
2023/05/01 06:56:54;;;;;;;;;;;16.10;99.90;;;;;;5056618;28;19912;-54
2023/05/01 06:59:20;;;;;;;;;;;16.40;99.90;;;;;;5056345;28;19917;-54
2023/05/01 07:01:46;;;;;;;;;;;16.70;99.90;;;;;;5056374;28;19960;-54
2023/05/01 07:04:12;;;;;;;;;;;16.50;99.90;;;;;;5057735;28;20297;-54
2023/05/01 07:06:38;;;;;;;;;;;17.00;99.90;;;;;;5057463;28;20263;-54
2023/05/01 07:09:04;;;;;;;;;;;17.60;99.90;;;;;;5057361;28;20433;-54
2023/05/01 07:11:31;;;;;;;;;;;17.60;97.50;;;;;;5057495;28;19924;-54
2023/05/01 07:13:57;;;;;;;;;;;18.00;96.10;;;;;;5057294;28;19913;-54
2023/05/01 07:16:23;;;;;;;;;;;18.20;96.90;;;;;;5057462;28;19921;-54
2023/05/01 07:18:49;;;;;;;;;;;18.50;93.00;;;;;;5072992;28;19994;-54
2023/05/01 07:21:15;;;;;;;;;;;18.90;93.20;;;;;;5077152;28;19917;-54
2023/05/01 07:23:41;;;;;;;;;;;19.20;91.80;;;;;;5077401;28;19912;-54
2023/05/01 07:26:07;;;;;;;;;;;19.40;90.60;;;;;;5077278;28;19919;-54
2023/05/01 07:28:32;;;;;;;;;;;19.50;89.30;;;;;;5077077;28;19967;-54
2023/05/01 07:31:00;;;;;;;;;;;19.40;88.30;;;;;;5077465;28;19919;-54
2023/05/01 07:33:26;;;;;;;;;;;19.80;86.70;;;;;;5077144;28;19917;-54
2023/05/01 07:35:52;;;;;;;;;;;20.10;83.30;;;;;;5076893;28;20390;-54
2023/05/01 07:38:18;;;;;;;;;;;20.30;82.00;;;;;;5076946;28;19967;-54
2023/05/01 07:40:44;;;;;;;;;;;20.50;82.70;;;;;;5076989;28;19916;-54
2023/05/01 07:43:12;;;;;;;;;;;20.80;81.90;;;;;;5076807;28;19954;-54
2023/05/01 07:45:38;;;;;;;;;;;20.80;78.90;;;;;;5076947;28;19913;-54
2023/05/01 07:48:04;;;;;;;;;;;21.00;76.10;;;;;;5076856;28;19920;-54
2023/05/01 07:50:30;;;;;;;;;;;21.00;76.20;;;;;;5076667;28;20362;-54
2023/05/01 07:52:56;;;;;;;;;;;21.40;78.60;;;;;;5076678;28;19913;-54
2023/05/01 07:55:23;;;;;;;;;;;21.80;78.20;;;;;;5076689;28;19912;-54
2023/05/01 07:57:49;;;;;;;;;;;22.10;74.10;;;;;;5076582;28;19923;-54
2023/05/01 08:00:15;;;;;;;;;;;21.90;74.50;;;;;;5076989;28;19916;-54
2023/05/01 08:02:41;;;;;;;;;;;22.40;72.90;;;;;;5076491;28;19913;-54
2023/05/01 08:05:07;;;;;;;;;;;22.60;72.10;;;;;;5076539;28;19912;-54
2023/05/01 08:07:33;;;;;;;;;;;22.80;69.70;;;;;;5076567;28;19999;-54
2023/05/01 08:10:01;;;;;;;;;;;23.00;69.10;;;;;;5076350;28;19915;-54
2023/05/01 08:12:27;;;;;;;;;;;22.60;69.60;;;;;;5076366;28;19913;-54
2023/05/01 08:14:53;;;;;;;;;;;23.00;69.90;;;;;;5076441;28;19912;-54
2023/05/01 08:17:19;;;;;;;;;;;22.70;66.60;;;;;;5075980;28;19920;-54
2023/05/01 08:19:45;;;;;;;;;;;22.90;69.80;;;;;;5076075;28;19959;-54
2023/05/01 08:22:11;;;;;;;;;;;23.20;65.90;;;;;;5076268;28;19943;-54
2023/05/01 08:24:37;;;;;;;;;;;22.90;65.60;;;;;;5076098;28;20004;-54
2023/05/01 08:27:03;;;;;;;;;;;23.30;66.70;;;;;;5076029;28;20356;-54
2023/05/01 08:29:29;;;;;;;;;;;23.40;68.10;;;;;;5076073;28;20101;-54
2023/05/01 08:31:55;;;;;;;;;;;24.00;64.30;;;;;;5075946;28;19912;-54
2023/05/01 08:34:21;;;;;;;;;;;24.20;60.90;;;;;;5075958;28;20344;-54
2023/05/01 08:36:47;;;;;;;;;;;24.00;57.30;;;;;;5075858;28;19967;-54
2023/05/01 08:39:14;;;;;;;;;;;24.10;59.20;;;;;;5075709;28;19916;-54
2023/05/01 08:41:43;;;;;;;;;;;24.70;54.00;;;;;;5075929;28;19916;-54
2023/05/01 08:44:09;;;;;;;;;;;24.70;54.70;;;;;;5075850;28;20378;-54
2023/05/01 08:46:49;;;;;;;;;;;24.70;52.40;;;;;;5075562;28;20453;-54
2023/05/01 08:49:16;;;;;;;;;;;24.20;52.80;;;;;;5075653;28;19916;-54
2023/05/01 08:51:48;;;;;;;;;;;24.90;49.70;;;;;;5075690;28;19957;-54
2023/05/01 08:54:15;;;;;;;;;;;25.30;46.50;;;;;;5074957;28;19965;-54
2023/05/01 08:56:45;;;;;;;;;;;25.20;46.40;;;;;;5075612;28;19909;-54
2023/05/01 08:59:13;;;;;;;;;;;24.70;49.80;;;;;;5075295;28;19931;-54
2023/05/01 09:01:39;;;;;;;;;;;25.20;47.50;;;;;;5075285;28;19919;-54
2023/05/01 09:04:06;;;;;;;;;;;25.60;45.70;;;;;;5075302;28;19912;-54
2023/05/01 09:06:31;;;;;;;;;;;24.60;43.70;;;;;;5075313;28;19908;-54
2023/05/01 09:08:58;;;;;;;;;;;25.20;49.30;;;;;;5075317;28;19997;-54
2023/05/01 09:11:25;;;;;;;;;;;25.20;43.20;;;;;;5075285;28;19909;-54
2023/05/01 09:13:51;;;;;;;;;;;25.30;46.70;;;;;;5075036;28;19916;-54
2023/05/01 09:16:17;;;;;;;;;;;25.30;46.40;;;;;;5075108;28;19916;-54
2023/05/01 09:18:43;;;;;;;;;;;25.80;43.30;;;;;;5074859;28;19924;-54
2023/05/01 09:21:09;;;;;;;;;;;25.60;44.50;;;;;;5075109;28;19912;-54
2023/05/01 09:23:36;;;;;;;;;;;24.70;41.40;;;;;;5075333;28;19916;-54
2023/05/01 09:26:05;;;;;;;;;;;25.70;42.40;;;;;;5075138;28;19916;-54
2023/05/01 09:28:45;;;;;;;;;;;25.80;41.90;;;;;;5074905;28;19926;-54
2023/05/01 09:31:24;;;;;;;;;;;26.00;42.00;;;;;;5075068;28;19956;-54
2023/05/01 09:33:53;;;;;;;;;;;26.40;44.70;;;;;;5075075;28;19924;-54
2023/05/01 09:36:18;;;;;;;;;;;26.40;43.80;;;;;;5074887;28;20144;-54
2023/05/01 09:38:44;;;;;;;;;;;26.30;40.00;;;;;;5074827;28;19943;-54
2023/05/01 09:41:10;;;;;;;;;;;25.40;41.00;;;;;;5074860;28;20438;-54
2023/05/01 09:43:36;;;;;;;;;;;24.20;42.00;;;;;;5074727;28;19955;-54
2023/05/01 09:46:08;;;;;;;;;;;24.00;42.50;;;;;;5074844;28;20356;-54
2023/05/01 09:48:34;;;;;;;;;;;24.40;43.90;;;;;;5074644;28;20254;-54
2023/05/01 09:51:00;;;;;;;;;;;23.90;45.10;;;;;;5074726;28;19975;-54
2023/05/01 09:53:36;;;;;;;;;;;25.20;45.50;;;;;;5074746;28;19912;-54
2023/05/01 09:56:02;;;;;;;;;;;25.30;44.00;;;;;;5074740;28;19925;-54
2023/05/01 09:58:28;;;;;;;;;;;24.30;45.30;;;;;;5074573;28;20048;-54
2023/05/01 10:00:54;;;;;;;;;;;24.40;44.00;;;;;;5074755;28;19950;-54
2023/05/01 10:03:20;;;;;;;;;;;24.50;44.10;;;;;;5074735;28;20300;-54
2023/05/01 10:05:46;;;;;;;;;;;25.30;42.10;;;;;;5075984;28;19913;-54
2023/05/01 10:08:13;;;;;;;;;;;26.00;44.90;;;;;;5078851;28;19917;-54
2023/05/01 10:10:40;;;;;;;;;;;25.20;41.40;;;;;;5078703;28;19922;-54
2023/05/01 10:13:12;;;;;;;;;;;25.30;41.60;;;;;;5078688;28;19912;-54
2023/05/01 10:15:37;;;;;;;;;;;25.50;38.80;;;;;;5078680;28;19917;-54
2023/05/01 10:18:03;;;;;;;;;;;24.10;41.40;;;;;;5078288;28;20320;-54
2023/05/01 10:20:30;;;;;;;;;;;24.40;45.00;;;;;;5078403;28;20373;-54
2023/05/01 10:22:55;;;;;;;;;;;24.80;39.20;;;;;;5078625;28;19920;-54
2023/05/01 10:25:23;;;;;;;;;;;24.70;40.60;;;;;;5078550;28;19913;-54
2023/05/01 10:27:50;;;;;;;;;;;24.10;39.90;;;;;;5078647;28;19920;-54
2023/05/01 10:30:16;;;;;;;;;;;24.50;41.70;;;;;;5078323;28;20263;-54
2023/05/01 10:32:41;;;;;;;;;;;25.20;42.60;;;;;;5078304;28;19909;-54
2023/05/01 10:35:11;;;;;;;;;;;25.30;37.10;;;;;;5078158;28;19920;-54
2023/05/01 10:37:37;;;;;;;;;;;24.40;37.80;;;;;;5078425;28;19913;-54
2023/05/01 10:40:21;;;;;;;;;;;24.30;39.10;;;;;;5077958;28;19924;-54
2023/05/01 10:43:11;;;;;;;;;;;24.50;41.40;;;;;;5078092;28;19923;-54
2023/05/01 10:45:37;;;;;;;;;;;25.20;40.40;;;;;;5078192;28;19916;-54
2023/05/01 10:48:03;;;;;;;;;;;24.90;36.80;;;;;;5077925;28;19919;-54
2023/05/01 10:50:29;;;;;;;;;;;25.00;35.80;;;;;;5077945;28;19968;-54
2023/05/01 10:53:16;;;;;;;;;;;25.10;37.00;;;;;;5077714;28;20381;-54
2023/05/01 10:55:43;;;;;;;;;;;25.20;34.60;;;;;;5077976;28;19945;-54
2023/05/01 10:58:13;;;;;;;;;;;25.20;35.70;;;;;;5077990;28;19927;-54
2023/05/01 11:00:39;;;;;;;;;;;25.20;40.20;;;;;;5077629;28;19992;-54
2023/05/01 11:03:28;;;;;;;;;;;25.80;40.10;;;;;;5077677;28;19916;-54
2023/05/01 11:06:00;;;;;;;;;;;26.40;40.10;;;;;;5064471;28;19919;-54
2023/05/01 11:08:30;;;;;;;;;;;26.40;37.00;;;;;;5077357;28;19912;-54
2023/05/01 11:10:56;;;;;;;;;;;26.10;37.90;;;;;;5077576;28;19912;-54
2023/05/01 11:13:40;;;;;;;;;;;25.70;36.70;;;;;;5077682;28;20273;-54
2023/05/01 11:16:26;;;;;;;;;;;24.70;40.50;;;;;;5076792;28;19923;-54
2023/05/01 11:18:52;;;;;;;;;;;25.20;40.00;;;;;;5059495;28;19928;-54
2023/05/01 11:21:27;;;;;;;;;;;25.30;40.70;;;;;;5077498;28;19920;-54
2023/05/01 11:23:53;;;;;;;;;;;26.40;41.80;;;;;;5077589;28;19934;-54
2023/05/01 11:26:21;;;;;;;;;;;26.70;37.40;;;;;;5077497;28;19912;-54
2023/05/01 11:28:47;;;;;;;;;;;27.00;39.50;;;;;;5077138;28;19972;-54
2023/05/01 11:31:18;;;;;;;;;;;26.90;36.20;;;;;;5077141;28;20290;-54
2023/05/01 11:33:44;;;;;;;;;;;26.90;34.30;;;;;;5077231;28;19916;-54
2023/05/01 11:36:10;;;;;;;;;;;26.70;34.10;;;;;;5077081;28;19917;-54
2023/05/01 11:38:36;;;;;;;;;;;26.90;39.70;;;;;;5077177;28;20267;-54
2023/05/01 11:41:03;;;;;;;;;;;26.90;36.70;;;;;;5077076;28;19964;-54
2023/05/01 11:43:29;;;;;;;;;;;27.70;39.00;;;;;;5076887;28;19948;-54
2023/05/01 11:46:00;;;;;;;;;;;26.90;35.50;;;;;;5076954;28;19912;-54
2023/05/01 11:48:29;;;;;;;;;;;27.80;37.20;;;;;;5077029;28;19919;-54
2023/05/01 11:50:55;;;;;;;;;;;28.10;37.50;;;;;;5076899;28;19916;-54
2023/05/01 11:53:21;;;;;;;;;;;28.10;34.20;;;;;;5076811;28;19913;-54
2023/05/01 11:55:48;;;;;;;;;;;28.10;37.50;;;;;;5076842;28;20372;-54
2023/05/01 11:58:14;;;;;;;;;;;28.40;36.40;;;;;;5076588;28;20011;-54
2023/05/01 12:00:41;;;;;;;;;;;27.90;34.20;;;;;;5076618;28;20396;-54
2023/05/01 12:03:13;;;;;;;;;;;27.80;36.50;;;;;;5076667;28;19913;-54
2023/05/01 12:05:41;;;;;;;;;;;28.10;35.20;;;;;;5076493;28;19935;-54
2023/05/01 12:08:08;;;;;;;;;;;28.00;36.30;;;;;;5076447;28;20435;-54
2023/05/01 12:10:34;;;;;;;;;;;28.10;35.00;;;;;;5076455;28;19934;-54
2023/05/01 12:13:04;;;;;;;;;;;28.20;35.40;;;;;;5076042;28;19920;-54
2023/05/01 12:15:30;;;;;;;;;;;28.20;35.00;;;;;;5076488;28;19954;-54
2023/05/01 12:17:56;;;;;;;;;;;28.30;33.90;;;;;;5076004;28;19927;-54
2023/05/01 12:20:36;;;;;;;;;;;28.40;33.90;;;;;;5076140;28;19912;-54
2023/05/01 12:23:04;;;;;;;;;;;28.30;33.60;;;;;;5076093;28;19939;-54
2023/05/01 12:25:30;;;;;;;;;;;28.80;35.80;;;;;;5076055;28;20217;-54
2023/05/01 12:27:56;;;;;;;;;;;28.10;31.90;;;;;;5075150;28;19958;-54
2023/05/01 12:30:25;;;;;;;;;;;27.70;35.10;;;;;;5076125;28;20011;-54
2023/05/01 12:32:51;;;;;;;;;;;27.70;36.00;;;;;;5075982;28;19993;-54
2023/05/01 12:35:17;;;;;;;;;;;28.40;35.10;;;;;;5075904;28;19916;-54
2023/05/01 12:37:43;;;;;;;;;;;28.60;35.20;;;;;;5075904;28;19927;-54
2023/05/01 12:40:13;;;;;;;;;;;28.50;34.40;;;;;;5075594;28;19912;-54
2023/05/01 12:42:39;;;;;;;;;;;27.90;31.10;;;;;;5075828;28;19916;-54
2023/05/01 12:45:05;;;;;;;;;;;27.50;32.50;;;;;;5075954;28;19987;-54
2023/05/01 12:47:38;;;;;;;;;;;28.00;32.90;;;;;;5075616;28;19913;-54
2023/05/01 12:50:04;;;;;;;;;;;28.00;35.00;;;;;;5075595;28;20361;-54
2023/05/01 12:52:30;;;;;;;;;;;28.30;33.70;;;;;;5075614;28;20027;-54
2023/05/01 12:55:03;;;;;;;;;;;27.60;34.20;;;;;;5075536;28;19963;-54
2023/05/01 12:57:29;;;;;;;;;;;27.10;35.10;;;;;;5075535;28;19917;-54
2023/05/01 13:00:02;;;;;;;;;;;27.60;36.00;;;;;;5075640;28;19921;-54
2023/05/01 13:02:31;;;;;;;;;;;27.60;34.60;;;;;;5075245;28;20325;-54
2023/05/01 13:05:07;;;;;;;;;;;27.80;35.80;;;;;;5075192;28;20423;-54
2023/05/01 13:07:34;;;;;;;;;;;27.80;34.70;;;;;;5075268;28;19916;-54
2023/05/01 13:09:59;;;;;;;;;;;27.80;32.90;;;;;;5075133;28;19913;-54
2023/05/01 13:12:26;;;;;;;;;;;27.90;33.20;;;;;;5075262;28;19936;-54
2023/05/01 13:14:52;;;;;;;;;;;28.20;35.50;;;;;;5075393;28;20405;-54
2023/05/01 13:17:26;;;;;;;;;;;28.40;35.90;;;;;;5074865;28;19931;-54
2023/05/01 13:19:53;;;;;;;;;;;28.30;35.50;;;;;;5075372;28;19916;-54
2023/05/01 13:22:27;;;;;;;;;;;28.40;34.50;;;;;;5074986;28;19919;-54
2023/05/01 13:24:53;;;;;;;;;;;28.00;31.40;;;;;;5075279;28;19942;-54
2023/05/01 13:27:20;;;;;;;;;;;26.90;34.30;;;;;;5075120;28;19913;-54
2023/05/01 13:29:51;;;;;;;;;;;27.30;35.50;;;;;;5074921;28;19938;-54
2023/05/01 13:32:17;;;;;;;;;;;27.50;35.30;;;;;;5074986;28;19919;-54
2023/05/01 13:34:43;;;;;;;;;;;27.40;35.70;;;;;;5075050;28;19916;-54
2023/05/01 13:37:12;;;;;;;;;;;27.10;34.70;;;;;;5074752;28;19959;-54
2023/05/01 13:39:41;;;;;;;;;;;26.60;35.30;;;;;;5074578;28;19944;-54
2023/05/01 13:42:08;;;;;;;;;;;26.80;36.60;;;;;;5074816;28;19913;-54
2023/05/01 13:44:42;;;;;;;;;;;26.90;38.50;;;;;;5074784;28;19995;-54
2023/05/01 13:47:08;;;;;;;;;;;27.00;39.10;;;;;;5074940;28;19980;-54
2023/05/01 13:49:37;;;;;;;;;;;26.70;36.80;;;;;;5074870;28;20022;-54
2023/05/01 13:52:03;;;;;;;;;;;26.50;38.90;;;;;;5074535;28;20358;-54
2023/05/01 13:54:29;;;;;;;;;;;26.30;37.10;;;;;;5074769;28;19966;-54
2023/05/01 13:56:55;;;;;;;;;;;26.40;38.10;;;;;;5075123;28;19920;-54
2023/05/01 13:59:20;;;;;;;;;;;26.30;37.60;;;;;;5074543;28;19923;-54
2023/05/01 14:01:46;;;;;;;;;;;26.40;39.30;;;;;;5074925;28;19912;-54
2023/05/01 14:04:20;;;;;;;;;;;25.70;37.70;;;;;;5074749;28;19916;-54
2023/05/01 14:06:47;;;;;;;;;;;26.00;40.00;;;;;;5074571;28;19912;-54
2023/05/01 14:09:16;;;;;;;;;;;25.80;37.20;;;;;;5074574;28;19916;-54
2023/05/01 14:11:45;;;;;;;;;;;25.70;38.80;;;;;;5074711;28;19926;-54
2023/05/01 14:14:14;;;;;;;;;;;25.90;40.00;;;;;;5074465;28;20277;-54
2023/05/01 14:16:40;;;;;;;;;;;25.90;38.60;;;;;;5074550;28;20332;-54
2023/05/01 14:19:07;;;;;;;;;;;25.60;40.70;;;;;;5074378;28;19927;-54
2023/05/01 14:21:37;;;;;;;;;;;25.60;39.10;;;;;;5074619;28;19920;-54
2023/05/01 14:24:04;;;;;;;;;;;25.70;41.30;;;;;;5074456;28;19955;-54
2023/05/01 14:26:30;;;;;;;;;;;25.80;40.40;;;;;;5074390;28;19958;-54